createdAt,value
2023-04-16T00:02:21.576Z,6.00
2023-04-16T00:04:49.211Z,5.80
2023-04-16T00:07:16.700Z,5.80
2023-04-16T00:09:44.385Z,5.80
2023-04-16T00:12:11.914Z,5.80
2023-04-16T00:14:39.346Z,6.00
2023-04-16T00:17:06.903Z,6.20
2023-04-16T00:19:34.487Z,6.30
2023-04-16T00:22:02.006Z,6.20
2023-04-16T00:24:29.466Z,6.00
2023-04-16T00:26:57.236Z,5.90
2023-04-16T00:29:24.869Z,5.80
2023-04-16T00:31:52.292Z,5.80
2023-04-16T00:34:19.736Z,5.80
2023-04-16T00:36:47.246Z,5.80
2023-04-16T00:39:14.722Z,5.80
2023-04-16T00:41:44.285Z,5.90
2023-04-16T00:44:11.788Z,5.90
2023-04-16T00:46:39.535Z,5.90
2023-04-16T00:49:07.194Z,5.80
2023-04-16T00:51:36.138Z,5.80
2023-04-16T00:54:04.348Z,5.80
2023-04-16T00:56:32.370Z,5.80
2023-04-16T00:59:00.075Z,5.80
2023-04-16T01:01:27.922Z,5.90
2023-04-16T01:03:56.202Z,6.00
2023-04-16T01:06:23.927Z,6.10
2023-04-16T01:08:51.558Z,6.20
2023-04-16T01:11:19.251Z,6.20
2023-04-16T01:13:46.740Z,6.20
2023-04-16T01:16:14.901Z,6.10
2023-04-16T01:18:42.510Z,6.20
2023-04-16T01:21:10.153Z,6.20
2023-04-16T01:23:37.695Z,6.40
2023-04-16T01:26:05.141Z,6.40
2023-04-16T01:28:32.737Z,6.40
2023-04-16T01:31:00.767Z,6.40
2023-04-16T01:33:28.301Z,6.30
2023-04-16T01:35:55.805Z,6.10
2023-04-16T01:38:23.281Z,6.00
2023-04-16T01:40:50.861Z,5.90
2023-04-16T01:43:18.349Z,5.80
2023-04-16T01:45:45.860Z,5.60
2023-04-16T01:48:13.403Z,5.50
2023-04-16T01:50:41.369Z,5.50
2023-04-16T01:53:09.856Z,5.50
2023-04-16T01:55:37.345Z,5.50
2023-04-16T01:58:04.872Z,5.50
2023-04-16T02:00:32.426Z,5.50
2023-04-16T02:03:00.442Z,5.50
2023-04-16T02:05:28.080Z,5.50
2023-04-16T02:07:55.577Z,5.60
2023-04-16T02:10:23.590Z,5.70
2023-04-16T02:12:51.367Z,5.70
2023-04-16T02:15:18.961Z,5.90
2023-04-16T02:17:48.072Z,6.00
2023-04-16T02:20:15.878Z,6.00
2023-04-16T02:22:43.636Z,6.00
2023-04-16T02:25:11.244Z,5.90
2023-04-16T02:27:38.737Z,5.80
2023-04-16T02:30:07.513Z,5.80
2023-04-16T02:32:34.964Z,5.60
2023-04-16T02:35:04.202Z,5.50
2023-04-16T02:37:31.673Z,5.50
2023-04-16T02:39:59.134Z,5.60
2023-04-16T02:42:26.603Z,5.60
2023-04-16T02:44:54.113Z,5.60
2023-04-16T02:47:21.616Z,5.70
2023-04-16T02:49:49.069Z,5.70
2023-04-16T02:52:16.560Z,5.70
2023-04-16T02:54:44.034Z,5.70
2023-04-16T02:57:11.571Z,5.70
2023-04-16T02:59:39.021Z,5.70
2023-04-16T03:02:06.557Z,5.70
2023-04-16T03:04:34.198Z,5.70
2023-04-16T03:07:01.972Z,5.70
2023-04-16T03:09:29.494Z,5.60
2023-04-16T03:11:57.028Z,5.60
2023-04-16T03:14:24.442Z,5.60
2023-04-16T03:16:52.156Z,5.50
2023-04-16T03:19:19.784Z,5.40
2023-04-16T03:21:47.229Z,5.30
2023-04-16T03:24:14.760Z,5.30
2023-04-16T03:26:42.294Z,5.30
2023-04-16T03:29:10.064Z,5.30
2023-04-16T03:31:37.737Z,5.30
2023-04-16T03:34:05.270Z,5.30
2023-04-16T03:36:33.150Z,5.30
2023-04-16T03:39:00.737Z,5.30
2023-04-16T03:41:28.218Z,5.40
2023-04-16T03:43:55.709Z,5.50
2023-04-16T03:46:23.205Z,5.60
2023-04-16T03:48:50.689Z,5.60
2023-04-16T03:51:21.277Z,5.60
2023-04-16T03:53:48.727Z,5.50
2023-04-16T03:56:16.374Z,5.50
2023-04-16T03:58:43.828Z,5.50
2023-04-16T04:01:11.285Z,5.50
2023-04-16T04:03:38.926Z,5.60
2023-04-16T04:06:10.110Z,5.60
2023-04-16T04:08:37.615Z,5.70
2023-04-16T04:11:05.212Z,5.70
2023-04-16T04:13:32.689Z,5.80
2023-04-16T04:16:00.229Z,5.80
2023-04-16T04:18:27.679Z,5.90
2023-04-16T04:20:55.252Z,5.90
2023-04-16T04:23:22.706Z,6.00
2023-04-16T04:25:50.248Z,6.00
2023-04-16T04:28:17.773Z,6.00
2023-04-16T04:30:45.464Z,5.90
2023-04-16T04:33:12.915Z,5.80
2023-04-16T04:35:40.602Z,5.70
2023-04-16T04:38:08.119Z,5.70
2023-04-16T04:40:35.849Z,5.80
2023-04-16T04:43:03.376Z,5.70
2023-04-16T04:45:32.137Z,5.80
2023-04-16T04:47:59.695Z,5.80
2023-04-16T04:50:27.230Z,5.80
2023-04-16T04:52:54.678Z,5.80
2023-04-16T04:55:22.106Z,5.80
2023-04-16T04:57:50.721Z,5.90
2023-04-16T05:00:18.865Z,5.90
2023-04-16T05:02:47.607Z,5.80
2023-04-16T05:05:15.161Z,5.70
2023-04-16T05:07:43.256Z,5.70
2023-04-16T05:10:10.932Z,5.80
2023-04-16T05:12:38.420Z,5.90
2023-04-16T05:15:06.596Z,5.80
2023-04-16T05:17:34.123Z,5.80
2023-04-16T05:20:01.613Z,6.00
2023-04-16T05:22:29.122Z,6.30
2023-04-16T05:24:56.622Z,6.50
2023-04-16T05:27:24.141Z,6.80
2023-04-16T05:29:51.584Z,7.10
2023-04-16T05:32:19.279Z,7.20
2023-04-16T05:34:46.782Z,7.40
2023-04-16T05:37:14.220Z,7.50
2023-04-16T05:39:41.691Z,7.60
2023-04-16T05:42:09.281Z,7.70
2023-04-16T05:44:37.614Z,7.60
2023-04-16T05:47:05.160Z,7.50
2023-04-16T05:49:32.695Z,7.40
2023-04-16T05:52:00.300Z,7.50
2023-04-16T05:54:27.739Z,7.40
2023-04-16T05:56:55.234Z,7.30
2023-04-16T05:59:22.713Z,7.30
2023-04-16T06:01:50.231Z,7.10
2023-04-16T06:04:17.873Z,6.90
2023-04-16T06:06:45.566Z,6.80
2023-04-16T06:09:13.114Z,6.70
2023-04-16T06:11:40.648Z,6.80
2023-04-16T06:14:08.193Z,6.70
2023-04-16T06:16:35.663Z,6.70
2023-04-16T06:19:03.236Z,6.70
2023-04-16T06:21:31.926Z,6.60
2023-04-16T06:23:59.431Z,6.60
2023-04-16T06:26:27.070Z,6.50
2023-04-16T06:28:54.500Z,6.50
2023-04-16T06:31:22.119Z,6.50
2023-04-16T06:33:49.603Z,6.60
2023-04-16T06:36:17.135Z,6.70
2023-04-16T06:38:44.747Z,6.90
2023-04-16T06:41:14.511Z,7.20
2023-04-16T06:43:42.082Z,7.30
2023-04-16T06:46:09.589Z,7.40
2023-04-16T06:48:37.117Z,7.50
2023-04-16T06:51:04.961Z,7.40
2023-04-16T06:53:33.201Z,7.50
2023-04-16T06:56:00.648Z,7.10
2023-04-16T06:58:28.158Z,7.00
2023-04-16T07:00:55.892Z,7.10
2023-04-16T07:03:23.630Z,7.10
2023-04-16T07:05:51.237Z,7.10
2023-04-16T07:08:18.697Z,7.20
2023-04-16T07:10:46.203Z,7.40
2023-04-16T07:13:13.816Z,7.60
2023-04-16T07:15:41.343Z,7.80
2023-04-16T07:18:08.852Z,8.10
2023-04-16T07:20:36.594Z,8.30
2023-04-16T07:23:04.204Z,8.30
2023-04-16T07:25:31.628Z,8.50
2023-04-16T07:27:59.094Z,8.80
2023-04-16T07:30:32.836Z,9.00
2023-04-16T07:33:03.049Z,9.10
2023-04-16T07:35:31.756Z,9.30
2023-04-16T07:37:59.300Z,9.30
2023-04-16T07:40:26.900Z,9.30
2023-04-16T07:42:55.628Z,9.30
2023-04-16T07:45:23.910Z,9.40
2023-04-16T07:47:51.490Z,9.40
2023-04-16T07:50:19.648Z,9.50
2023-04-16T07:52:47.998Z,9.60
2023-04-16T07:55:15.565Z,9.60
2023-04-16T07:57:43.100Z,9.60
2023-04-16T08:00:11.817Z,9.80
2023-04-16T08:02:39.419Z,10.00
2023-04-16T08:05:07.910Z,10.20
2023-04-16T08:07:35.669Z,10.40
2023-04-16T08:10:03.250Z,10.30
2023-04-16T08:12:31.088Z,10.30
2023-04-16T08:14:58.574Z,10.50
2023-04-16T08:17:26.384Z,10.60
2023-04-16T08:19:53.965Z,10.70
2023-04-16T08:22:22.638Z,10.90
2023-04-16T08:24:50.070Z,11.20
2023-04-16T08:27:19.261Z,11.30
2023-04-16T08:29:48.435Z,11.30
2023-04-16T08:32:16.076Z,11.20
2023-04-16T08:34:43.880Z,11.50
2023-04-16T08:37:11.328Z,11.80
2023-04-16T08:39:38.884Z,12.00
2023-04-16T08:42:14.676Z,12.30
2023-04-16T08:44:49.338Z,12.60
2023-04-16T08:47:17.204Z,12.90
2023-04-16T08:49:48.772Z,13.50
2023-04-16T08:52:22.640Z,13.90
2023-04-16T08:55:09.224Z,14.20
2023-04-16T08:57:53.962Z,14.50
2023-04-16T09:00:21.758Z,14.90
2023-04-16T09:02:50.625Z,15.00
2023-04-16T09:05:25.726Z,15.00
2023-04-16T09:07:56.644Z,15.30
2023-04-16T09:10:25.723Z,15.30
2023-04-16T09:12:57.515Z,14.90
2023-04-16T09:15:29.577Z,14.70
2023-04-16T09:17:57.830Z,14.60
2023-04-16T09:20:25.509Z,14.90
2023-04-16T09:22:53.068Z,15.10
2023-04-16T09:25:22.817Z,15.10
2023-04-16T09:27:51.464Z,14.90
2023-04-16T09:30:27.628Z,14.90
2023-04-16T09:33:24.512Z,15.20
2023-04-16T09:35:53.331Z,14.90
2023-04-16T09:38:21.433Z,14.40
2023-04-16T09:40:48.998Z,14.10
2023-04-16T09:43:19.582Z,13.80
2023-04-16T09:45:53.363Z,13.60
2023-04-16T09:48:32.334Z,13.50
2023-04-16T09:51:01.290Z,13.30
2023-04-16T09:53:32.900Z,13.20
2023-04-16T09:56:06.431Z,13.00
2023-04-16T09:58:38.242Z,12.90
2023-04-16T10:01:11.665Z,13.00
2023-04-16T10:03:42.448Z,13.10
2023-04-16T10:06:20.247Z,13.30
2023-04-16T10:08:50.412Z,13.30
2023-04-16T10:11:20.654Z,13.60
2023-04-16T10:13:48.284Z,13.80
2023-04-16T10:16:16.141Z,14.20
2023-04-16T10:18:46.150Z,14.40
2023-04-16T10:21:15.466Z,14.50
2023-04-16T10:23:44.280Z,14.60
2023-04-16T10:26:12.041Z,14.60
2023-04-16T10:28:41.274Z,14.60
2023-04-16T10:31:09.909Z,14.40
2023-04-16T10:33:41.073Z,14.50
2023-04-16T10:36:14.362Z,14.80
2023-04-16T10:38:52.797Z,15.00
2023-04-16T10:41:23.366Z,15.10
2023-04-16T10:43:51.855Z,15.20
2023-04-16T10:46:33.095Z,14.90
2023-04-16T10:49:19.772Z,14.70
2023-04-16T10:51:54.601Z,14.50
2023-04-16T10:54:26.014Z,14.20
2023-04-16T10:56:56.797Z,13.90
2023-04-16T10:59:25.540Z,13.90
2023-04-16T11:01:56.727Z,14.30
2023-04-16T11:04:24.432Z,14.40
2023-04-16T11:07:11.769Z,14.80
2023-04-16T11:10:04.664Z,14.90
2023-04-16T11:12:40.562Z,14.70
2023-04-16T11:15:10.307Z,15.00
2023-04-16T11:17:47.160Z,15.10
2023-04-16T11:20:25.654Z,15.70
2023-04-16T11:22:56.710Z,17.00
2023-04-16T11:25:30.095Z,17.40
2023-04-16T11:28:01.724Z,16.80
2023-04-16T11:30:34.945Z,16.40
2023-04-16T11:33:13.843Z,17.20
2023-04-16T11:35:41.687Z,17.70
2023-04-16T11:38:09.494Z,18.00
2023-04-16T11:40:37.054Z,18.10
2023-04-16T11:43:27.019Z,17.80
2023-04-16T11:46:20.112Z,17.80
2023-04-16T11:48:58.097Z,18.30
2023-04-16T11:51:26.873Z,19.40
2023-04-16T11:53:55.518Z,18.20
2023-04-16T11:56:34.494Z,17.20
2023-04-16T11:59:13.856Z,17.90
2023-04-16T12:01:45.869Z,18.80
2023-04-16T12:04:20.150Z,19.10
2023-04-16T12:07:11.457Z,18.00
2023-04-16T12:09:41.663Z,17.10
2023-04-16T12:12:31.594Z,16.80
2023-04-16T12:15:03.346Z,17.10
2023-04-16T12:17:35.745Z,18.50
2023-04-16T12:20:12.285Z,20.80
2023-04-16T12:22:47.246Z,20.90
2023-04-16T12:25:17.640Z,20.60
2023-04-16T12:27:56.356Z,21.00
2023-04-16T12:30:26.452Z,19.90
2023-04-16T12:33:17.681Z,19.00
2023-04-16T12:35:45.687Z,19.20
2023-04-16T12:38:15.375Z,19.00
2023-04-16T12:40:43.400Z,18.50
2023-04-16T12:43:11.332Z,19.40
2023-04-16T12:45:42.418Z,20.40
2023-04-16T12:48:10.385Z,19.20
2023-04-16T12:50:39.800Z,17.90
2023-04-16T12:53:07.419Z,17.10
2023-04-16T12:55:35.017Z,16.40
2023-04-16T12:58:02.505Z,17.50
2023-04-16T13:00:30.016Z,19.20
2023-04-16T13:02:57.693Z,20.50
2023-04-16T13:05:25.989Z,21.20
2023-04-16T13:07:53.435Z,21.60
2023-04-16T13:10:23.686Z,21.20
2023-04-16T13:12:51.245Z,20.80
2023-04-16T13:15:18.799Z,20.80
2023-04-16T13:17:46.316Z,20.10
2023-04-16T13:20:13.950Z,21.40
2023-04-16T13:22:41.575Z,21.80
2023-04-16T13:25:10.088Z,21.20
2023-04-16T13:27:37.565Z,19.70
2023-04-16T13:30:06.068Z,18.30
2023-04-16T13:32:33.796Z,18.00
2023-04-16T13:35:01.568Z,17.40
2023-04-16T13:37:29.054Z,16.80
2023-04-16T13:39:56.769Z,16.70
2023-04-16T13:42:24.643Z,16.50
2023-04-16T13:44:54.340Z,16.60
2023-04-16T13:47:22.169Z,17.10
2023-04-16T13:49:49.769Z,18.00
2023-04-16T13:52:17.309Z,18.50
2023-04-16T13:54:44.773Z,18.10
2023-04-16T13:57:12.780Z,17.80
2023-04-16T13:59:40.335Z,18.60
2023-04-16T14:02:10.719Z,20.50
2023-04-16T14:04:38.246Z,22.40
2023-04-16T14:07:05.694Z,22.30
2023-04-16T14:09:33.207Z,21.30
2023-04-16T14:12:01.026Z,19.60
2023-04-16T14:14:28.524Z,18.80
2023-04-16T14:16:58.307Z,18.00
2023-04-16T14:19:26.171Z,18.00
2023-04-16T14:21:54.496Z,17.90
2023-04-16T14:24:22.007Z,17.50
2023-04-16T14:26:49.558Z,17.10
2023-04-16T14:29:17.128Z,17.40
2023-04-16T14:31:44.631Z,17.60
2023-04-16T14:34:12.184Z,17.40
2023-04-16T14:36:39.793Z,17.10
2023-04-16T14:39:07.328Z,16.90
2023-04-16T14:41:34.850Z,16.80
2023-04-16T14:44:04.371Z,16.60
2023-04-16T14:46:33.812Z,16.80
2023-04-16T14:49:01.466Z,17.20
2023-04-16T14:51:28.964Z,17.70
2023-04-16T14:53:56.933Z,18.20
2023-04-16T14:56:24.453Z,18.40
2023-04-16T14:58:51.975Z,18.60
2023-04-16T15:01:19.543Z,18.40
2023-04-16T15:03:47.236Z,17.90
2023-04-16T15:06:16.567Z,17.60
2023-04-16T15:08:44.325Z,17.60
2023-04-16T15:11:11.792Z,17.30
2023-04-16T15:13:39.455Z,17.30
2023-04-16T15:16:07.002Z,18.60
2023-04-16T15:18:34.600Z,19.40
2023-04-16T15:21:02.152Z,19.30
2023-04-16T15:23:29.630Z,18.80
2023-04-16T15:25:57.137Z,18.70
2023-04-16T15:28:24.929Z,18.70
2023-04-16T15:30:53.054Z,20.30
2023-04-16T15:33:23.724Z,22.90
2023-04-16T15:35:52.144Z,24.60
2023-04-16T15:38:21.459Z,25.60
2023-04-16T15:40:49.018Z,26.40
2023-04-16T15:43:16.975Z,27.00
2023-04-16T15:45:44.445Z,25.20
2023-04-16T15:48:12.022Z,22.80
2023-04-16T15:50:39.638Z,20.90
2023-04-16T15:53:07.318Z,19.20
2023-04-16T15:55:36.060Z,18.50
2023-04-16T15:58:03.545Z,17.80
2023-04-16T16:00:31.206Z,17.40
2023-04-16T16:02:58.885Z,17.10
2023-04-16T16:05:27.342Z,17.00
2023-04-16T16:07:54.828Z,16.80
2023-04-16T16:10:22.285Z,16.60
2023-04-16T16:12:49.847Z,16.40
2023-04-16T16:15:17.419Z,17.20
2023-04-16T16:17:44.985Z,18.00
2023-04-16T16:20:12.995Z,19.70
2023-04-16T16:22:40.837Z,21.40
2023-04-16T16:25:10.280Z,23.00
2023-04-16T16:27:37.988Z,23.60
2023-04-16T16:30:07.478Z,23.70
2023-04-16T16:32:35.184Z,23.40
2023-04-16T16:35:02.836Z,23.40
2023-04-16T16:37:30.458Z,22.70
2023-04-16T16:39:57.970Z,22.30
2023-04-16T16:42:26.782Z,21.90
2023-04-16T16:44:56.008Z,21.30
2023-04-16T16:47:25.213Z,21.00
2023-04-16T16:49:54.861Z,20.70
2023-04-16T16:52:26.504Z,19.70
2023-04-16T16:54:54.924Z,18.30
2023-04-16T16:57:24.041Z,17.20
2023-04-16T16:59:51.732Z,16.10
2023-04-16T17:02:19.432Z,15.30
2023-04-16T17:04:46.949Z,14.70
2023-04-16T17:07:14.874Z,14.30
2023-04-16T17:09:42.446Z,14.00
2023-04-16T17:12:09.988Z,13.80
2023-04-16T17:14:37.454Z,13.70
2023-04-16T17:17:05.019Z,13.60
2023-04-16T17:19:32.526Z,13.50
2023-04-16T17:22:00.071Z,13.40
2023-04-16T17:24:27.570Z,13.20
2023-04-16T17:26:55.030Z,13.20
2023-04-16T17:29:26.206Z,13.00
2023-04-16T17:31:54.216Z,12.90
2023-04-16T17:34:22.135Z,12.80
2023-04-16T17:36:52.615Z,12.70
2023-04-16T17:39:21.071Z,12.50
2023-04-16T17:41:54.372Z,12.40
2023-04-16T17:44:23.321Z,12.40
2023-04-16T17:46:51.136Z,12.30
2023-04-16T17:49:19.012Z,12.20
2023-04-16T17:51:46.626Z,12.20
2023-04-16T17:54:14.076Z,12.20
2023-04-16T17:56:41.599Z,12.20
2023-04-16T17:59:09.211Z,12.10
2023-04-16T18:01:36.759Z,12.10
2023-04-16T18:04:04.990Z,12.00
2023-04-16T18:06:32.688Z,12.00
2023-04-16T18:09:00.211Z,11.90
2023-04-16T18:11:29.428Z,11.80
2023-04-16T18:13:58.090Z,11.70
2023-04-16T18:16:26.468Z,11.60
2023-04-16T18:18:53.996Z,11.50
2023-04-16T18:21:21.449Z,11.40
2023-04-16T18:23:49.053Z,11.40
2023-04-16T18:26:20.410Z,11.30
2023-04-16T18:28:48.557Z,11.30
2023-04-16T18:31:20.924Z,11.30
2023-04-16T18:33:57.496Z,11.20
2023-04-16T18:36:27.081Z,11.20
2023-04-16T18:39:02.266Z,11.10
2023-04-16T18:41:31.492Z,11.00
2023-04-16T18:43:59.063Z,11.00
2023-04-16T18:46:28.049Z,11.00
2023-04-16T18:48:59.178Z,11.00
2023-04-16T18:51:27.448Z,11.00
2023-04-16T18:53:54.914Z,10.90
2023-04-16T18:56:22.506Z,10.90
2023-04-16T18:58:50.042Z,10.90
2023-04-16T19:01:18.490Z,10.80
2023-04-16T19:03:46.355Z,10.80
2023-04-16T19:06:14.020Z,10.70
2023-04-16T19:08:41.593Z,10.70
2023-04-16T19:11:09.136Z,10.70
2023-04-16T19:13:38.281Z,10.60
2023-04-16T19:16:11.518Z,10.60
2023-04-16T19:18:39.600Z,10.50
2023-04-16T19:21:07.456Z,10.40
2023-04-16T19:23:35.041Z,10.40
2023-04-16T19:26:02.553Z,10.30
2023-04-16T19:28:30.070Z,10.30
2023-04-16T19:30:57.595Z,10.30
2023-04-16T19:33:25.195Z,10.30
2023-04-16T19:35:52.674Z,10.20
2023-04-16T19:38:20.326Z,10.20
2023-04-16T19:40:49.374Z,10.20
2023-04-16T19:43:16.867Z,10.20
2023-04-16T19:45:53.648Z,10.00
2023-04-16T19:48:21.709Z,9.80
2023-04-16T19:50:49.535Z,9.90
2023-04-16T19:53:20.368Z,10.10
2023-04-16T19:55:48.033Z,10.10
2023-04-16T19:58:15.548Z,10.10
2023-04-16T20:00:43.515Z,10.10
2023-04-16T20:03:11.352Z,10.30
2023-04-16T20:05:38.861Z,10.40
2023-04-16T20:08:06.780Z,10.40
2023-04-16T20:10:34.403Z,10.50
2023-04-16T20:13:02.017Z,10.60
2023-04-16T20:15:29.483Z,10.60
2023-04-16T20:17:57.152Z,10.70
2023-04-16T20:20:24.664Z,10.70
2023-04-16T20:22:52.209Z,10.60
2023-04-16T20:25:19.849Z,10.60
2023-04-16T20:27:47.646Z,10.60
2023-04-16T20:30:15.832Z,10.60
2023-04-16T20:32:43.546Z,10.50
2023-04-16T20:35:11.681Z,10.50
2023-04-16T20:37:39.945Z,10.40
2023-04-16T20:40:09.608Z,10.40
2023-04-16T20:42:37.371Z,10.30
2023-04-16T20:45:05.819Z,10.20
2023-04-16T20:47:36.505Z,10.10
2023-04-16T20:50:04.256Z,10.10
2023-04-16T20:52:32.871Z,10.10
2023-04-16T20:55:00.371Z,10.00
2023-04-16T20:57:29.806Z,9.90
2023-04-16T20:59:59.037Z,9.90
2023-04-16T21:02:28.384Z,9.80
2023-04-16T21:04:56.287Z,9.80
2023-04-16T21:07:23.895Z,9.80
2023-04-16T21:09:51.395Z,9.70
2023-04-16T21:12:19.437Z,9.70
2023-04-16T21:14:47.084Z,9.70
2023-04-16T21:17:14.566Z,9.50
2023-04-16T21:19:42.051Z,9.40
2023-04-16T21:22:09.627Z,9.30
2023-04-16T21:24:37.162Z,9.30
2023-04-16T21:27:04.690Z,9.20
2023-04-16T21:29:32.891Z,9.20
2023-04-16T21:32:00.547Z,9.10
2023-04-16T21:34:28.324Z,9.10
2023-04-16T21:36:57.269Z,9.10
2023-04-16T21:39:27.877Z,9.10
2023-04-16T21:41:57.748Z,9.10
2023-04-16T21:44:25.988Z,9.10
2023-04-16T21:46:53.703Z,9.20
2023-04-16T21:49:22.018Z,9.20
2023-04-16T21:51:50.430Z,9.20
2023-04-16T21:54:18.888Z,9.20
2023-04-16T21:56:46.502Z,9.20
2023-04-16T21:59:14.098Z,9.20
2023-04-16T22:01:41.835Z,9.20
2023-04-16T22:04:10.121Z,9.30
2023-04-16T22:06:38.834Z,9.30
2023-04-16T22:09:07.068Z,9.30
2023-04-16T22:11:34.703Z,9.30
2023-04-16T22:14:03.189Z,9.30
2023-04-16T22:16:31.259Z,9.30
2023-04-16T22:18:58.748Z,9.30
2023-04-16T22:21:26.689Z,9.40
2023-04-16T22:23:54.171Z,9.40
2023-04-16T22:26:21.816Z,9.40
2023-04-16T22:28:49.253Z,9.40
2023-04-16T22:31:16.908Z,9.40
2023-04-16T22:33:44.494Z,9.40
2023-04-16T22:36:11.930Z,9.40
2023-04-16T22:38:39.898Z,9.40
2023-04-16T22:41:07.440Z,9.30
2023-04-16T22:43:37.333Z,9.30
2023-04-16T22:46:09.713Z,9.20
2023-04-16T22:48:39.245Z,9.20
2023-04-16T22:51:08.918Z,9.10
2023-04-16T22:53:36.983Z,9.10
2023-04-16T22:56:06.307Z,9.00
2023-04-16T22:58:33.787Z,8.80
2023-04-16T23:01:01.860Z,8.80
2023-04-16T23:03:29.525Z,8.70
2023-04-16T23:05:57.024Z,8.70
2023-04-16T23:08:24.513Z,8.70
2023-04-16T23:10:51.962Z,8.70
2023-04-16T23:13:19.425Z,8.70
2023-04-16T23:15:47.583Z,8.70
2023-04-16T23:18:15.236Z,8.70
2023-04-16T23:20:42.713Z,8.60
2023-04-16T23:23:10.180Z,8.60
2023-04-16T23:25:37.673Z,8.60
2023-04-16T23:28:05.206Z,8.60
2023-04-16T23:30:32.740Z,8.60
2023-04-16T23:33:00.365Z,8.60
2023-04-16T23:35:27.989Z,8.60
2023-04-16T23:37:55.762Z,8.60
2023-04-16T23:40:23.239Z,8.70
2023-04-16T23:42:52.257Z,8.60
2023-04-16T23:45:19.834Z,8.70
2023-04-16T23:47:48.699Z,8.60
2023-04-16T23:50:16.350Z,8.50
2023-04-16T23:52:43.856Z,8.50
2023-04-16T23:55:11.445Z,8.50
2023-04-16T23:57:38.959Z,8.50
